createdAt,value
2019-05-16T00:00:44.092Z,7.69
2019-05-16T00:01:44.214Z,7.66
2019-05-16T00:02:44.071Z,7.58
2019-05-16T00:03:44.079Z,7.56
2019-05-16T00:04:44.022Z,7.55
2019-05-16T00:05:53.298Z,7.56
2019-05-16T00:06:44.011Z,7.48
2019-05-16T00:07:44.021Z,7.48
2019-05-16T00:08:43.999Z,7.46
2019-05-16T00:09:44.014Z,7.40
2019-05-16T00:10:44.007Z,7.44
2019-05-16T00:11:43.945Z,7.37
2019-05-16T00:12:43.918Z,7.40
2019-05-16T00:13:43.933Z,7.37
2019-05-16T00:14:43.908Z,7.32
2019-05-16T00:15:43.875Z,7.43
2019-05-16T00:16:43.994Z,7.36
2019-05-16T00:17:43.858Z,7.37
2019-05-16T00:18:43.865Z,7.40
2019-05-16T00:19:43.852Z,7.44
2019-05-16T00:20:43.867Z,7.46
2019-05-16T00:21:43.838Z,7.46
2019-05-16T00:22:43.826Z,7.40
2019-05-16T00:23:43.737Z,7.43
2019-05-16T00:24:43.707Z,7.41
2019-05-16T00:25:43.781Z,7.40
2019-05-16T00:26:43.653Z,7.44
2019-05-16T00:27:43.669Z,7.51
2019-05-16T00:28:43.705Z,7.48
2019-05-16T00:29:43.653Z,7.46
2019-05-16T00:30:43.611Z,7.47
2019-05-16T00:31:43.578Z,7.46
2019-05-16T00:32:43.597Z,7.55
2019-05-16T00:33:43.594Z,7.48
2019-05-16T00:34:43.565Z,7.51
2019-05-16T00:35:43.493Z,7.59
2019-05-16T00:36:43.492Z,7.56
2019-05-16T00:37:43.456Z,7.56
2019-05-16T00:38:43.434Z,7.69
2019-05-16T00:39:43.416Z,7.66
2019-05-16T00:40:43.406Z,7.67
2019-05-16T00:41:43.379Z,7.67
2019-05-16T00:42:43.363Z,7.64
2019-05-16T00:43:43.357Z,7.78
2019-05-16T00:44:43.345Z,7.78
2019-05-16T00:45:43.319Z,7.81
2019-05-16T00:46:43.306Z,7.84
2019-05-16T00:47:43.273Z,7.81
2019-05-16T00:48:43.264Z,7.95
2019-05-16T00:49:43.244Z,7.90
2019-05-16T00:50:43.238Z,7.99
2019-05-16T00:51:43.210Z,7.99
2019-05-16T00:52:43.197Z,7.96
2019-05-16T00:53:43.184Z,8.05
2019-05-16T00:54:43.182Z,8.11
2019-05-16T00:55:43.141Z,8.08
2019-05-16T00:56:43.137Z,8.13
2019-05-16T00:57:43.111Z,8.06
2019-05-16T00:58:43.089Z,8.17
2019-05-16T00:59:43.076Z,8.09
2019-05-16T01:00:43.061Z,8.16
2019-05-16T01:01:43.054Z,8.16
2019-05-16T01:02:43.024Z,8.18
2019-05-16T01:03:43.023Z,8.20
2019-05-16T01:04:42.997Z,8.21
2019-05-16T01:05:42.971Z,8.21
2019-05-16T01:06:42.982Z,8.21
2019-05-16T01:07:42.937Z,8.21
2019-05-16T01:08:42.917Z,8.24
2019-05-16T01:09:42.923Z,8.23
2019-05-16T01:16:03.804Z,8.27
2019-05-16T01:34:21.578Z,8.44
2019-05-16T01:35:21.710Z,8.49
2019-05-16T01:40:19.094Z,8.56
2019-05-16T01:41:18.664Z,8.56
2019-05-16T01:43:49.516Z,8.57
2019-05-16T01:44:49.193Z,8.49
2019-05-16T01:45:49.195Z,8.39
2019-05-16T01:46:49.332Z,8.41
2019-05-16T01:47:49.100Z,8.42
2019-05-16T01:48:49.245Z,8.41
2019-05-16T01:49:49.075Z,8.28
2019-05-16T01:50:49.112Z,8.38
2019-05-16T01:51:49.118Z,8.28
2019-05-16T01:52:49.197Z,8.36
2019-05-16T01:53:49.033Z,8.32
2019-05-16T01:54:49.094Z,8.34
2019-05-16T01:55:49.139Z,8.26
2019-05-16T01:56:48.969Z,8.28
2019-05-16T01:57:48.941Z,8.31
2019-05-16T01:58:49.191Z,8.20
2019-05-16T01:59:48.895Z,8.18
2019-05-16T02:01:00.985Z,8.23
2019-05-16T02:01:48.855Z,8.24
2019-05-16T02:02:48.961Z,8.23
2019-05-16T02:03:48.842Z,8.24
2019-05-16T02:04:48.827Z,8.24
2019-05-16T02:05:48.780Z,8.23
2019-05-16T02:06:54.434Z,8.16
2019-05-16T02:07:48.772Z,8.17
2019-05-16T02:08:48.929Z,8.23
2019-05-16T02:09:48.745Z,8.18
2019-05-16T02:10:48.739Z,8.16
2019-05-16T02:11:48.693Z,8.16
2019-05-16T02:12:49.133Z,8.21
2019-05-16T02:13:48.687Z,8.20
2019-05-16T02:14:48.647Z,8.08
2019-05-16T02:15:48.983Z,8.16
2019-05-16T02:16:48.613Z,8.14
2019-05-16T02:17:48.712Z,8.11
2019-05-16T02:18:48.960Z,8.16
2019-05-16T02:19:48.686Z,8.09
2019-05-16T02:20:48.530Z,8.06
2019-05-16T02:21:50.702Z,8.11
2019-05-16T02:22:48.492Z,8.11
2019-05-16T02:23:51.498Z,8.11
2019-05-16T02:24:48.470Z,8.14
2019-05-16T02:25:49.109Z,8.08
2019-05-16T02:26:49.289Z,8.09
2019-05-16T02:27:48.992Z,8.08
2019-05-16T02:28:50.648Z,8.09
2019-05-16T02:29:50.588Z,8.08
2019-05-16T02:30:51.407Z,8.06
2019-05-16T02:31:51.249Z,8.11
2019-05-16T02:32:51.929Z,8.08
2019-05-16T02:33:51.037Z,8.01
2019-05-16T02:34:51.321Z,8.02
2019-05-16T02:35:54.767Z,8.01
2019-05-16T02:37:09.548Z,7.93
2019-05-16T02:37:54.747Z,7.90
2019-05-16T02:38:51.474Z,7.91
2019-05-16T02:39:51.433Z,7.96
2019-05-16T02:40:54.399Z,7.96
2019-05-16T02:41:51.827Z,7.91
2019-05-16T02:42:51.231Z,7.84
2019-05-16T02:43:50.718Z,7.88
2019-05-16T02:44:50.958Z,7.88
2019-05-16T02:45:51.675Z,7.77
2019-05-16T02:46:50.868Z,7.84
2019-05-16T02:47:51.135Z,7.74
2019-05-16T02:48:51.565Z,7.80
2019-05-16T02:49:50.480Z,7.81
2019-05-16T02:50:50.911Z,7.77
2019-05-16T02:51:50.946Z,7.66
2019-05-16T02:52:51.385Z,7.72
2019-05-16T02:53:50.985Z,7.78
2019-05-16T02:54:51.512Z,7.77
2019-05-16T02:55:51.341Z,7.70
2019-05-16T02:56:50.468Z,7.70
2019-05-16T02:57:50.711Z,7.66
2019-05-16T02:58:51.675Z,7.62
2019-05-16T02:59:50.671Z,7.66
2019-05-16T03:00:51.223Z,7.59
2019-05-16T03:01:51.768Z,7.59
2019-05-16T03:02:50.401Z,7.62
2019-05-16T03:03:51.340Z,7.62
2019-05-16T03:04:51.393Z,7.59
2019-05-16T03:05:50.598Z,7.61
2019-05-16T03:06:51.203Z,7.58
2019-05-16T03:07:51.771Z,7.55
2019-05-16T03:08:50.689Z,7.59
2019-05-16T03:09:51.198Z,7.48
2019-05-16T03:10:47.707Z,7.50
2019-05-16T03:11:50.833Z,7.47
2019-05-16T03:12:47.662Z,7.46
2019-05-16T03:13:47.659Z,7.44
2019-05-16T03:14:50.407Z,7.53
2019-05-16T03:15:47.611Z,7.50
2019-05-16T03:16:50.423Z,7.41
2019-05-16T03:17:50.631Z,7.43
2019-05-16T03:18:47.820Z,7.46
2019-05-16T03:19:51.103Z,7.44
2019-05-16T03:20:47.741Z,7.44
2019-05-16T03:50:41.212Z,7.21
2019-05-16T03:51:41.449Z,7.23
2019-05-16T03:53:44.635Z,7.25
2019-05-16T03:54:44.603Z,7.22
2019-05-16T03:55:44.662Z,7.23
2019-05-16T03:56:44.652Z,7.22
2019-05-16T03:57:44.553Z,7.26
2019-05-16T03:58:44.553Z,7.22
2019-05-16T03:59:44.522Z,7.26
2019-05-16T04:00:45.868Z,7.23
2019-05-16T04:01:44.483Z,7.23
2019-05-16T04:02:45.802Z,7.23
2019-05-16T04:03:44.448Z,7.18
2019-05-16T04:04:44.433Z,7.26
2019-05-16T04:05:44.406Z,7.21
2019-05-16T04:06:44.397Z,7.23
2019-05-16T04:07:44.381Z,7.29
2019-05-16T04:08:44.384Z,7.25
2019-05-16T04:09:44.526Z,7.26
2019-05-16T04:10:44.471Z,7.25
2019-05-16T04:11:44.444Z,7.25
2019-05-16T04:12:44.425Z,7.23
2019-05-16T04:13:44.318Z,7.25
2019-05-16T04:14:44.256Z,7.26
2019-05-16T04:15:44.241Z,7.22
2019-05-16T04:16:44.222Z,7.21
2019-05-16T04:17:44.209Z,7.23
2019-05-16T04:18:44.189Z,7.23
2019-05-16T04:19:44.171Z,7.28
2019-05-16T04:20:44.157Z,7.25
2019-05-16T04:21:44.136Z,7.22
2019-05-16T04:22:44.123Z,7.25
2019-05-16T04:23:44.109Z,7.25
2019-05-16T04:24:44.088Z,7.22
2019-05-16T04:25:44.067Z,7.29
2019-05-16T04:26:44.057Z,7.28
2019-05-16T04:27:44.037Z,7.26
2019-05-16T04:28:44.016Z,7.36
2019-05-16T04:29:43.998Z,7.28
2019-05-16T04:30:43.996Z,7.36
2019-05-16T04:31:43.970Z,7.39
2019-05-16T04:32:43.951Z,7.41
2019-05-16T04:33:43.956Z,7.47
2019-05-16T04:34:43.914Z,7.44
2019-05-16T04:35:43.908Z,7.43
2019-05-16T04:36:43.873Z,7.48
2019-05-16T04:37:43.857Z,7.47
2019-05-16T04:38:46.793Z,7.48
2019-05-16T04:39:43.824Z,7.56
2019-05-16T04:40:43.825Z,7.53
2019-05-16T04:41:43.794Z,7.67
2019-05-16T04:42:43.770Z,7.66
2019-05-16T04:43:43.756Z,7.77
2019-05-16T04:44:43.755Z,7.78
2019-05-16T04:45:43.745Z,7.77
2019-05-16T04:46:43.699Z,7.74
2019-05-16T04:47:43.694Z,7.87
2019-05-16T04:48:43.684Z,7.96
2019-05-16T04:49:43.669Z,7.95
2019-05-16T04:50:43.640Z,7.98
2019-05-16T04:51:43.619Z,8.02
2019-05-16T04:52:43.612Z,8.08
2019-05-16T04:53:43.584Z,8.05
2019-05-16T04:54:43.564Z,8.09
2019-05-16T04:55:43.582Z,8.16
2019-05-16T04:56:43.539Z,8.17
2019-05-16T04:57:43.531Z,8.14
2019-05-16T04:58:43.497Z,8.23
2019-05-16T04:59:43.491Z,8.18
2019-05-16T05:00:43.471Z,8.23
2019-05-16T05:01:43.450Z,8.35
2019-05-16T05:02:43.440Z,8.32
2019-05-16T05:04:00.198Z,8.44
2019-05-16T05:04:43.398Z,8.42
2019-05-16T05:05:43.388Z,8.46
2019-05-16T05:06:43.366Z,8.54
2019-05-16T05:07:43.350Z,8.59
2019-05-16T05:08:54.534Z,8.54
2019-05-16T05:09:43.337Z,8.61
2019-05-16T05:10:43.304Z,8.72
2019-05-16T05:11:43.278Z,8.77
2019-05-16T05:12:43.273Z,8.78
2019-05-16T05:13:43.255Z,8.72
2019-05-16T05:14:43.232Z,8.87
2019-05-16T05:15:43.215Z,8.78
2019-05-16T05:16:43.196Z,8.81
2019-05-16T05:17:43.209Z,8.90
2019-05-16T05:18:43.164Z,8.97
2019-05-16T05:19:43.154Z,9.03
2019-05-16T05:20:43.151Z,9.03
2019-05-16T05:21:43.111Z,9.05
2019-05-16T05:22:43.102Z,9.18
2019-05-16T05:23:43.087Z,9.16
2019-05-16T05:24:43.081Z,9.18
2019-05-16T05:25:43.044Z,9.34
2019-05-16T05:26:43.028Z,9.31
2019-05-16T05:27:43.025Z,9.36
2019-05-16T05:28:43.004Z,9.37
2019-05-16T05:29:42.999Z,9.48
2019-05-16T05:30:42.967Z,9.55
2019-05-16T05:31:45.231Z,9.54
2019-05-16T05:32:42.933Z,9.52
2019-05-16T05:33:42.913Z,9.58
2019-05-16T05:34:42.926Z,9.66
2019-05-16T05:35:42.886Z,9.76
2019-05-16T05:36:42.876Z,9.76
2019-05-16T05:37:42.855Z,9.80
2019-05-16T05:38:42.835Z,9.82
2019-05-16T05:39:42.827Z,9.88
2019-05-16T05:40:42.805Z,9.91
2019-05-16T05:41:42.789Z,9.92
2019-05-16T05:42:42.780Z,10.00
2019-05-16T05:43:42.767Z,10.05
2019-05-16T05:44:42.743Z,10.03
2019-05-16T05:45:42.719Z,10.00
2019-05-16T05:46:42.707Z,10.05
2019-05-16T05:47:42.685Z,10.15
2019-05-16T05:48:42.698Z,10.20
2019-05-16T05:49:42.659Z,10.27
2019-05-16T05:50:42.648Z,10.28
2019-05-16T05:51:42.621Z,10.33
2019-05-16T05:52:45.993Z,10.31
2019-05-16T05:53:42.594Z,10.46
2019-05-16T05:54:42.580Z,10.49
2019-05-16T05:55:42.558Z,10.59
2019-05-16T05:56:42.555Z,10.49
2019-05-16T05:57:42.528Z,10.59
2019-05-16T05:58:42.515Z,10.69
2019-05-16T05:59:42.494Z,10.68
2019-05-16T06:00:42.489Z,10.69
2019-05-16T06:01:42.467Z,10.82
2019-05-16T06:02:42.458Z,10.71
2019-05-16T06:03:42.435Z,10.84
2019-05-16T06:04:42.424Z,10.87
2019-05-16T06:05:42.401Z,10.94
2019-05-16T06:06:44.988Z,10.86
2019-05-16T06:07:42.379Z,10.98
2019-05-16T06:08:42.358Z,11.04
2019-05-16T06:09:52.494Z,11.02
2019-05-16T06:10:42.331Z,11.12
2019-05-16T06:11:42.308Z,11.12
2019-05-16T06:12:42.829Z,11.07
2019-05-16T06:13:42.283Z,11.15
2019-05-16T06:14:42.263Z,11.15
2019-05-16T06:15:42.248Z,11.26
2019-05-16T06:16:42.239Z,11.37
2019-05-16T06:17:42.221Z,11.34
2019-05-16T06:18:42.217Z,11.33
2019-05-16T06:19:42.208Z,11.38
2019-05-16T06:20:42.180Z,11.40
2019-05-16T06:21:44.576Z,11.38
2019-05-16T06:22:42.135Z,11.52
2019-05-16T06:23:42.136Z,11.51
2019-05-16T06:24:42.110Z,11.49
2019-05-16T06:25:42.089Z,11.51
2019-05-16T06:26:42.078Z,11.56
2019-05-16T06:27:42.062Z,11.51
2019-05-16T06:28:42.051Z,11.59
2019-05-16T06:29:42.037Z,11.67
2019-05-16T06:30:42.025Z,11.59
2019-05-16T06:31:42.000Z,11.67
2019-05-16T06:32:41.996Z,11.71
2019-05-16T06:33:41.968Z,11.71
2019-05-16T06:34:41.961Z,11.71
2019-05-16T06:35:41.949Z,11.68
2019-05-16T06:36:41.927Z,11.77
2019-05-16T06:37:41.912Z,11.81
2019-05-16T06:38:41.893Z,11.81
2019-05-16T06:39:45.321Z,11.88
2019-05-16T06:40:41.866Z,11.89
2019-05-16T06:41:41.853Z,11.96
2019-05-16T06:42:41.842Z,12.03
2019-05-16T06:43:41.829Z,12.10
2019-05-16T06:44:41.810Z,12.14
2019-05-16T06:45:41.788Z,12.26
2019-05-16T06:46:56.177Z,12.26
2019-05-16T06:47:41.762Z,12.33
2019-05-16T06:48:41.745Z,12.45
2019-05-16T06:49:41.733Z,12.65
2019-05-16T06:50:41.737Z,12.62
2019-05-16T06:51:41.701Z,12.75
2019-05-16T06:52:41.688Z,12.87
2019-05-16T06:53:41.673Z,12.90
2019-05-16T06:54:41.659Z,12.93
2019-05-16T06:55:41.644Z,13.05
2019-05-16T06:56:41.635Z,13.13
2019-05-16T06:57:41.615Z,13.23
2019-05-16T06:58:47.685Z,13.31
2019-05-16T06:59:41.586Z,13.39
2019-05-16T07:00:41.574Z,13.49
2019-05-16T07:01:41.561Z,13.57
2019-05-16T07:02:41.558Z,13.65
2019-05-16T07:03:41.530Z,13.65
2019-05-16T07:04:41.519Z,13.80
2019-05-16T07:05:41.500Z,13.91
2019-05-16T07:06:54.169Z,14.01
2019-05-16T07:07:41.519Z,14.13
2019-05-16T07:08:41.465Z,14.16
2019-05-16T07:09:57.028Z,14.26
2019-05-16T07:10:41.443Z,14.37
2019-05-16T07:11:41.419Z,14.30
2019-05-16T07:12:41.541Z,14.41
2019-05-16T07:13:41.391Z,14.51
2019-05-16T07:14:41.381Z,14.48
2019-05-16T07:15:41.367Z,14.58
2019-05-16T07:16:41.354Z,14.58
2019-05-16T07:17:41.338Z,14.61
2019-05-16T07:18:41.342Z,14.59
2019-05-16T07:19:41.310Z,14.56
2019-05-16T07:20:41.305Z,14.62
2019-05-16T07:21:41.288Z,14.56
2019-05-16T07:22:41.271Z,14.70
2019-05-16T07:23:41.260Z,14.66
2019-05-16T07:24:41.246Z,14.77
2019-05-16T07:25:41.231Z,14.78
2019-05-16T07:26:41.218Z,14.87
2019-05-16T07:27:41.205Z,14.85
2019-05-16T07:28:41.195Z,15.00
2019-05-16T07:29:41.181Z,15.04
2019-05-16T07:30:41.175Z,15.04
2019-05-16T07:31:41.153Z,15.15
2019-05-16T07:32:41.148Z,15.11
2019-05-16T07:33:41.172Z,15.15
2019-05-16T07:34:41.174Z,15.15
2019-05-16T07:35:41.109Z,15.22
2019-05-16T07:36:41.092Z,15.18
2019-05-16T07:37:41.074Z,15.22
2019-05-16T07:38:41.068Z,15.15
2019-05-16T07:39:41.832Z,15.18
2019-05-16T07:40:41.037Z,15.26
2019-05-16T07:41:41.024Z,15.27
2019-05-16T07:42:41.012Z,15.33
2019-05-16T07:43:41.000Z,15.36
2019-05-16T07:44:40.987Z,15.33
2019-05-16T07:45:40.982Z,15.35
2019-05-16T07:46:44.751Z,15.37
2019-05-16T07:47:40.947Z,15.41
2019-05-16T07:48:40.936Z,15.33
2019-05-16T07:49:40.919Z,15.41
2019-05-16T07:50:40.920Z,15.48
2019-05-16T07:51:40.917Z,15.60
2019-05-16T07:52:40.887Z,15.55
2019-05-16T07:53:40.884Z,15.63
2019-05-16T07:54:40.882Z,15.73
2019-05-16T07:55:40.843Z,15.98
2019-05-16T07:56:41.056Z,15.99
2019-05-16T07:57:40.833Z,16.21
2019-05-16T07:58:41.497Z,16.37
2019-05-16T07:59:40.801Z,16.55
2019-05-16T08:00:49.789Z,16.74
2019-05-16T08:01:43.161Z,16.98
2019-05-16T08:02:40.759Z,17.13
2019-05-16T08:03:43.841Z,17.10
2019-05-16T08:04:40.740Z,17.28
2019-05-16T08:05:41.365Z,17.47
2019-05-16T08:06:41.617Z,17.68
2019-05-16T08:07:41.013Z,17.87
2019-05-16T08:08:40.700Z,18.00
2019-05-16T08:09:40.702Z,18.06
2019-05-16T08:10:46.388Z,18.21
2019-05-16T08:11:40.987Z,18.27
2019-05-16T08:12:40.951Z,18.37
2019-05-16T08:13:40.650Z,18.46
2019-05-16T08:14:41.060Z,18.48
2019-05-16T08:15:40.828Z,18.60
2019-05-16T08:16:40.996Z,18.64
2019-05-16T08:17:41.428Z,18.67
2019-05-16T08:18:44.969Z,18.66
2019-05-16T08:19:40.595Z,18.73
2019-05-16T08:20:41.680Z,18.73
2019-05-16T08:22:41.647Z,18.74
2019-05-16T08:23:41.184Z,18.86
2019-05-16T08:24:40.555Z,18.85
2019-05-16T08:25:41.256Z,19.05
2019-05-16T08:26:43.057Z,19.12
2019-05-16T08:27:41.568Z,19.16
2019-05-16T08:28:41.630Z,19.23
2019-05-16T08:29:40.610Z,19.16
2019-05-16T08:31:42.967Z,19.23
2019-05-16T08:33:41.589Z,19.30
2019-05-16T08:34:40.980Z,19.34
2019-05-16T08:35:41.329Z,19.34
2019-05-16T08:36:41.019Z,19.27
2019-05-16T08:37:46.602Z,19.24
2019-05-16T08:38:43.146Z,19.26
2019-05-16T08:39:41.347Z,19.24
2019-05-16T08:41:01.124Z,19.37
2019-05-16T08:41:42.406Z,19.42
2019-05-16T08:42:41.597Z,19.62
2019-05-16T08:43:41.453Z,19.56
2019-05-16T08:44:41.751Z,19.64
2019-05-16T08:45:41.810Z,19.64
2019-05-16T08:46:42.338Z,19.75
2019-05-16T08:47:42.413Z,19.78
2019-05-16T08:48:42.260Z,19.82
2019-05-16T08:49:42.185Z,19.63
2019-05-16T08:50:10.131Z,19.32
2019-05-16T08:50:42.034Z,19.67
2019-05-16T08:51:42.712Z,19.64
2019-05-16T08:52:43.632Z,19.56
2019-05-16T08:53:43.389Z,19.52
2019-05-16T08:54:43.769Z,19.63
2019-05-16T08:55:43.440Z,19.55
2019-05-16T08:56:44.256Z,19.59
2019-05-16T08:57:40.961Z,19.59
2019-05-16T08:58:41.171Z,19.64
2019-05-16T08:59:41.086Z,19.82
2019-05-16T09:00:41.889Z,20.04
2019-05-16T09:01:50.600Z,20.02
2019-05-16T09:02:42.185Z,20.08
2019-05-16T09:03:41.571Z,20.08
2019-05-16T09:04:44.150Z,20.07
2019-05-16T09:05:42.850Z,20.21
2019-05-16T09:06:42.454Z,20.14
2019-05-16T09:07:40.178Z,20.19
2019-05-16T09:08:40.182Z,20.33
2019-05-16T09:09:44.303Z,20.21
2019-05-16T09:10:31.317Z,18.78
2019-05-16T09:10:41.376Z,19.30
2019-05-16T09:10:51.422Z,20.22
2019-05-16T09:11:44.581Z,20.11
2019-05-16T09:12:40.138Z,20.07
2019-05-16T09:13:40.132Z,20.18
2019-05-16T09:14:40.115Z,20.19
2019-05-16T09:15:40.144Z,20.46
2019-05-16T09:16:40.105Z,20.58
2019-05-16T09:17:40.092Z,20.66
2019-05-16T09:18:41.440Z,20.58
2019-05-16T09:19:40.079Z,20.66
2019-05-16T09:20:42.840Z,20.66
2019-05-16T09:21:40.064Z,20.66
2019-05-16T09:22:40.065Z,20.67
2019-05-16T09:23:40.056Z,20.63
2019-05-16T09:24:40.056Z,20.75
2019-05-16T09:25:40.027Z,20.83
2019-05-16T09:26:40.026Z,21.00
2019-05-16T09:27:40.019Z,21.20
2019-05-16T09:28:40.016Z,21.26
2019-05-16T09:29:40.003Z,21.47
2019-05-16T09:30:39.987Z,21.62
2019-05-16T09:31:39.985Z,21.77
2019-05-16T09:32:42.773Z,21.97
2019-05-16T09:33:39.977Z,22.16
2019-05-16T09:34:39.962Z,22.34
2019-05-16T09:35:39.971Z,22.46
2019-05-16T09:36:39.971Z,22.59
2019-05-16T09:37:39.947Z,22.53
2019-05-16T09:38:39.935Z,22.65
2019-05-16T09:39:39.937Z,22.61
2019-05-16T09:40:39.927Z,22.61
2019-05-16T09:41:54.484Z,22.70
2019-05-16T09:42:39.911Z,22.70
2019-05-16T09:43:39.920Z,22.78
2019-05-16T09:44:39.954Z,22.81
2019-05-16T09:45:39.890Z,22.98
2019-05-16T09:46:39.902Z,22.83
2019-05-16T09:47:39.881Z,22.78
2019-05-16T09:48:39.873Z,22.80
2019-05-16T09:49:39.862Z,22.91
2019-05-16T09:50:39.863Z,23.01
2019-05-16T09:51:39.860Z,23.10
2019-05-16T09:52:39.858Z,23.20
2019-05-16T09:53:39.838Z,23.44
2019-05-16T09:54:39.856Z,23.69
2019-05-16T09:55:39.846Z,23.71
2019-05-16T09:56:39.820Z,23.84
2019-05-16T09:57:39.824Z,23.91
2019-05-16T09:58:39.811Z,23.95
2019-05-16T09:59:39.820Z,23.95
2019-05-16T10:00:39.810Z,24.18
2019-05-16T10:01:39.791Z,24.11
2019-05-16T10:02:39.792Z,24.22
2019-05-16T10:03:39.791Z,24.18
2019-05-16T10:04:39.796Z,24.37
2019-05-16T10:05:39.783Z,24.37
2019-05-16T10:06:39.769Z,24.32
2019-05-16T10:07:39.770Z,24.19
2019-05-16T10:08:39.790Z,24.14
2019-05-16T10:09:44.981Z,23.95
2019-05-16T10:10:39.749Z,23.92
2019-05-16T10:11:41.734Z,23.74
2019-05-16T10:12:39.738Z,23.58
2019-05-16T10:13:39.728Z,23.51
2019-05-16T10:14:39.735Z,23.29
2019-05-16T10:15:39.726Z,23.02
2019-05-16T10:16:39.721Z,22.78
2019-05-16T10:17:39.715Z,22.77
2019-05-16T10:18:39.761Z,22.76
2019-05-16T10:19:39.702Z,22.81
2019-05-16T10:20:39.797Z,22.95
2019-05-16T10:21:39.691Z,22.95
2019-05-16T10:22:39.686Z,22.98
2019-05-16T10:23:39.677Z,22.95
2019-05-16T10:24:39.674Z,23.10
2019-05-16T10:25:39.657Z,23.14
2019-05-16T10:26:39.664Z,23.25
2019-05-16T10:27:39.656Z,23.36
2019-05-16T10:28:39.648Z,23.52
2019-05-16T10:29:39.638Z,23.52
2019-05-16T10:30:39.638Z,23.64
2019-05-16T10:31:48.409Z,23.59
2019-05-16T10:32:39.982Z,23.52
2019-05-16T10:33:39.629Z,23.59
2019-05-16T10:34:39.614Z,23.55
2019-05-16T10:35:39.636Z,23.47
2019-05-16T10:36:39.605Z,23.47
2019-05-16T10:37:39.596Z,23.47
2019-05-16T10:38:39.592Z,23.56
2019-05-16T10:39:39.585Z,23.66
2019-05-16T10:40:39.580Z,23.84
2019-05-16T10:41:39.573Z,23.94
2019-05-16T10:42:39.562Z,24.19
2019-05-16T10:43:39.596Z,24.43
2019-05-16T10:44:39.561Z,24.71
2019-05-16T10:45:39.551Z,24.94
2019-05-16T10:46:39.556Z,25.14
2019-05-16T10:47:39.544Z,25.37
2019-05-16T10:48:39.537Z,25.58
2019-05-16T10:49:41.773Z,25.68
2019-05-16T10:50:39.549Z,25.92
2019-05-16T10:51:39.564Z,26.07
2019-05-16T10:52:39.522Z,26.16
2019-05-16T10:54:54.085Z,26.52
2019-05-16T10:55:39.510Z,26.61
2019-05-16T10:56:40.498Z,26.78
2019-05-16T10:57:39.589Z,26.86
2019-05-16T10:58:59.592Z,26.89
2019-05-16T11:00:02.085Z,26.86
2019-05-16T11:01:05.181Z,26.79
2019-05-16T11:01:39.486Z,26.79
2019-05-16T11:02:39.564Z,27.03
2019-05-16T11:03:39.481Z,27.03
2019-05-16T11:04:53.725Z,27.25
2019-05-16T11:05:39.701Z,27.22
2019-05-16T11:06:39.473Z,27.33
2019-05-16T11:07:39.473Z,27.50
2019-05-16T11:08:39.726Z,27.75
2019-05-16T11:09:43.499Z,27.90
2019-05-16T11:10:39.475Z,28.12
2019-05-16T11:11:39.461Z,28.13
2019-05-16T11:12:50.136Z,28.09
2019-05-16T11:13:39.449Z,28.12
2019-05-16T11:14:39.452Z,28.15
2019-05-16T11:15:39.463Z,28.15
2019-05-16T11:16:39.474Z,28.20
2019-05-16T11:17:39.449Z,28.20
2019-05-16T11:18:39.447Z,28.19
2019-05-16T11:19:39.449Z,28.35
2019-05-16T11:20:39.460Z,28.47
2019-05-16T11:21:39.439Z,28.75
2019-05-16T11:22:39.448Z,28.86
2019-05-16T11:23:39.440Z,29.12
2019-05-16T11:24:39.499Z,29.18
2019-05-16T11:25:39.425Z,29.24
2019-05-16T11:26:39.431Z,29.28
2019-05-16T11:27:39.431Z,29.24
2019-05-16T11:28:39.476Z,29.28
2019-05-16T11:29:39.427Z,29.15
2019-05-16T11:30:39.450Z,29.00
2019-05-16T11:31:39.426Z,28.75
2019-05-16T11:32:39.421Z,28.55
2019-05-16T11:33:39.425Z,28.35
2019-05-16T11:34:39.428Z,28.40
2019-05-16T11:35:39.422Z,28.52
2019-05-16T11:36:39.420Z,28.55
2019-05-16T11:37:39.419Z,28.53
2019-05-16T11:38:39.476Z,28.72
2019-05-16T11:39:39.419Z,28.86
2019-05-16T11:40:39.419Z,29.12
2019-05-16T11:41:39.414Z,29.32
2019-05-16T11:42:39.418Z,29.13
2019-05-16T11:43:39.415Z,29.05
2019-05-16T11:44:39.415Z,28.71
2019-05-16T11:45:39.413Z,28.50
2019-05-16T11:46:39.413Z,28.12
2019-05-16T11:47:39.415Z,28.04
2019-05-16T11:48:39.413Z,28.01
2019-05-16T11:49:39.411Z,27.98
2019-05-16T11:50:39.411Z,27.79
2019-05-16T11:51:39.404Z,27.75
2019-05-16T11:52:40.844Z,27.64
2019-05-16T11:53:39.398Z,27.71
2019-05-16T11:54:39.403Z,27.88
2019-05-16T11:55:51.729Z,27.94
2019-05-16T11:56:39.404Z,28.09
2019-05-16T11:57:39.402Z,28.33
2019-05-16T11:58:39.402Z,28.60
2019-05-16T11:59:39.402Z,28.86
2019-05-16T12:00:39.401Z,29.09
2019-05-16T12:01:39.398Z,29.18
2019-05-16T12:02:42.655Z,29.31
2019-05-16T12:03:39.420Z,29.43
2019-05-16T12:04:39.406Z,29.67
2019-05-16T12:05:39.400Z,29.76
2019-05-16T12:06:39.403Z,29.87
2019-05-16T12:07:44.403Z,29.92
2019-05-16T12:08:39.399Z,30.03
2019-05-16T12:09:46.986Z,30.02
2019-05-16T12:10:39.410Z,30.11
2019-05-16T12:11:39.417Z,30.32
2019-05-16T12:12:39.413Z,30.52
2019-05-16T12:13:39.415Z,30.62
2019-05-16T12:14:39.409Z,30.62
2019-05-16T12:15:39.417Z,30.49
2019-05-16T12:16:39.417Z,30.46
2019-05-16T12:17:39.425Z,30.52
2019-05-16T12:18:39.423Z,30.61
2019-05-16T12:19:43.953Z,30.67
2019-05-16T12:20:39.435Z,30.80
2019-05-16T12:21:39.428Z,30.99
2019-05-16T12:22:39.449Z,31.02
2019-05-16T12:23:39.436Z,31.15
2019-05-16T12:24:41.529Z,31.13
2019-05-16T12:25:39.440Z,31.04
2019-05-16T12:26:39.435Z,30.76
2019-05-16T12:27:42.351Z,30.62
2019-05-16T12:28:39.450Z,30.36
2019-05-16T12:29:39.452Z,30.02
2019-05-16T12:30:40.430Z,29.83
2019-05-16T12:31:54.212Z,29.43
2019-05-16T12:32:39.448Z,29.13
2019-05-16T12:33:39.457Z,29.12
2019-05-16T12:34:39.474Z,29.10
2019-05-16T12:35:39.461Z,29.13
2019-05-16T12:36:39.467Z,29.15
2019-05-16T12:37:39.476Z,28.93
2019-05-16T12:38:39.466Z,28.83
2019-05-16T12:39:39.467Z,28.78
2019-05-16T12:40:39.475Z,28.65
2019-05-16T12:41:41.406Z,28.59
2019-05-16T12:42:39.474Z,28.52
2019-05-16T12:43:48.952Z,28.49
2019-05-16T12:44:39.467Z,28.46
2019-05-16T12:45:39.495Z,28.65
2019-05-16T12:46:39.469Z,28.93
2019-05-16T12:47:39.477Z,29.21
2019-05-16T12:48:39.522Z,29.42
2019-05-16T12:49:39.479Z,29.58
2019-05-16T12:50:39.485Z,29.74
2019-05-16T12:51:39.483Z,30.01
2019-05-16T12:52:39.497Z,30.35
2019-05-16T12:53:39.494Z,30.73
2019-05-16T12:54:39.494Z,30.92
2019-05-16T12:55:39.495Z,30.96
2019-05-16T12:56:39.501Z,31.04
2019-05-16T12:57:39.507Z,30.77
2019-05-16T12:58:42.325Z,30.49
2019-05-16T12:59:42.304Z,30.05
2019-05-16T13:00:44.039Z,29.55
2019-05-16T13:01:39.516Z,29.15
2019-05-16T13:02:39.524Z,28.93
2019-05-16T13:03:39.526Z,28.68
2019-05-16T13:04:39.526Z,28.47
2019-05-16T13:05:39.531Z,28.19
2019-05-16T13:06:39.517Z,27.94
2019-05-16T13:07:39.520Z,27.60
2019-05-16T13:08:39.524Z,27.29
2019-05-16T13:09:39.523Z,27.13
2019-05-16T13:10:39.524Z,26.83
2019-05-16T13:11:39.523Z,26.64
2019-05-16T13:12:39.517Z,26.33
2019-05-16T13:13:39.521Z,26.04
2019-05-16T13:14:40.448Z,25.98
2019-05-16T13:15:42.340Z,25.91
2019-05-16T13:16:39.538Z,25.95
2019-05-16T13:17:39.513Z,25.98
2019-05-16T13:18:39.508Z,25.91
2019-05-16T13:19:44.271Z,25.81
2019-05-16T13:20:41.360Z,25.85
2019-05-16T13:21:39.510Z,25.80
2019-05-16T13:22:39.505Z,25.73
2019-05-16T13:23:39.501Z,25.66
2019-05-16T13:24:39.495Z,25.61
2019-05-16T13:25:39.497Z,25.62
2019-05-16T13:26:39.498Z,25.62
2019-05-16T13:27:39.485Z,25.67
2019-05-16T13:28:39.488Z,25.67
2019-05-16T13:29:39.486Z,25.68
2019-05-16T13:30:39.489Z,25.56
2019-05-16T13:31:39.479Z,25.51
2019-05-16T13:32:39.490Z,25.34
2019-05-16T13:33:39.472Z,25.24
2019-05-16T13:34:39.463Z,25.12
2019-05-16T13:35:39.473Z,24.94
2019-05-16T13:36:39.458Z,24.88
2019-05-16T13:37:39.463Z,24.66
2019-05-16T13:38:39.448Z,24.44
2019-05-16T13:39:39.446Z,24.29
2019-05-16T13:40:39.444Z,24.07
2019-05-16T13:41:39.442Z,23.94
2019-05-16T13:42:39.432Z,23.79
2019-05-16T13:43:39.426Z,23.62
2019-05-16T13:44:39.433Z,23.48
2019-05-16T13:45:39.418Z,23.36
2019-05-16T13:46:39.406Z,23.11
2019-05-16T13:47:39.400Z,23.02
2019-05-16T13:48:39.397Z,22.84
2019-05-16T13:49:39.405Z,22.76
2019-05-16T13:50:39.996Z,22.41
2019-05-16T13:51:39.387Z,22.46
2019-05-16T13:52:39.373Z,22.36
2019-05-16T13:53:39.370Z,22.22
2019-05-16T13:54:39.377Z,22.19
2019-05-16T13:55:39.354Z,22.06
2019-05-16T13:56:39.348Z,22.00
2019-05-16T13:57:39.339Z,21.91
2019-05-16T13:58:39.336Z,21.91
2019-05-16T13:59:39.324Z,21.80
2019-05-16T14:00:39.319Z,21.75